createdAt,value
2022-12-07T00:04:43.851Z,41
2022-12-07T00:14:49.889Z,41
2022-12-07T00:24:55.958Z,41
2022-12-07T00:35:01.968Z,41
2022-12-07T00:45:08.065Z,41
2022-12-07T00:55:14.071Z,41
2022-12-07T01:05:20.153Z,41
2022-12-07T01:15:26.168Z,41
2022-12-07T01:25:32.227Z,41
2022-12-07T01:35:38.261Z,41
2022-12-07T01:45:44.455Z,41
2022-12-07T01:55:50.343Z,41
2022-12-07T02:05:56.433Z,41
2022-12-07T02:16:02.527Z,41
2022-12-07T02:26:08.528Z,41
2022-12-07T02:36:14.574Z,41
2022-12-07T02:46:20.698Z,41
2022-12-07T02:56:26.613Z,41
2022-12-07T03:06:32.683Z,41
2022-12-07T03:16:38.707Z,41
2022-12-07T03:26:44.792Z,41
2022-12-07T03:36:50.800Z,41
2022-12-07T03:46:56.926Z,41
2022-12-07T03:57:02.882Z,41
2022-12-07T04:07:08.946Z,41
2022-12-07T04:17:14.988Z,41.5
2022-12-07T04:27:21.051Z,41.5
2022-12-07T04:37:27.082Z,41
2022-12-07T04:47:33.152Z,41
2022-12-07T04:57:39.147Z,41
2022-12-07T05:07:45.285Z,41
2022-12-07T05:17:51.250Z,40.5
2022-12-07T05:27:57.320Z,40.5
2022-12-07T05:38:03.329Z,40.5
2022-12-07T05:48:09.408Z,40.5
2022-12-07T05:58:16.545Z,40.5
2022-12-07T06:08:22.732Z,40.5
2022-12-07T06:18:28.659Z,40.5
2022-12-07T06:28:34.731Z,38.5
2022-12-07T06:38:40.758Z,40
2022-12-07T06:48:46.819Z,40.5
2022-12-07T06:58:52.839Z,40.5
2022-12-07T07:08:58.988Z,40.5
2022-12-07T07:19:04.905Z,40.5
2022-12-07T07:29:10.999Z,40.5
2022-12-07T07:39:17.010Z,40.5
2022-12-07T07:49:23.092Z,40.5
2022-12-07T07:59:29.186Z,40.5
2022-12-07T08:09:35.174Z,40.5
2022-12-07T08:19:41.185Z,40.5
2022-12-07T08:29:47.268Z,40.5
2022-12-07T08:39:53.287Z,40.5
2022-12-07T08:49:59.772Z,40.5
2022-12-07T09:00:05.568Z,40.5
2022-12-07T09:10:11.439Z,40.5
2022-12-07T09:20:17.471Z,40.5
2022-12-07T09:30:23.524Z,40.5
2022-12-07T09:40:29.545Z,40.5
2022-12-07T09:50:35.631Z,40.5
2022-12-07T10:00:41.637Z,40.5
2022-12-07T10:10:47.712Z,40.5
2022-12-07T10:20:53.735Z,40.5
2022-12-07T10:30:59.858Z,40.5
2022-12-07T10:41:05.832Z,40.5
2022-12-07T10:51:11.897Z,40.5
2022-12-07T11:01:17.960Z,40
2022-12-07T11:11:23.987Z,40.5
2022-12-07T11:21:30.031Z,40.5
2022-12-07T11:31:36.137Z,40.5
2022-12-07T11:41:42.092Z,40.5
2022-12-07T11:51:48.168Z,40.5
2022-12-07T12:01:54.288Z,40.5
2022-12-07T12:22:06.252Z,41
2022-12-07T12:32:12.402Z,40.5
2022-12-07T12:42:18.408Z,39
2022-12-07T12:52:24.437Z,38.5
2022-12-07T13:02:30.544Z,38
2022-12-07T13:12:36.506Z,38.5
2022-12-07T13:22:42.548Z,38
2022-12-07T13:32:48.702Z,38
2022-12-07T13:42:54.653Z,38
2022-12-07T13:53:00.714Z,38
2022-12-07T14:03:06.785Z,38.5
2022-12-07T14:13:12.813Z,39.5
2022-12-07T14:23:19.919Z,39.5
2022-12-07T14:33:26.007Z,39.5
2022-12-07T14:43:32.018Z,40
2022-12-07T14:53:38.104Z,40
2022-12-07T15:03:44.176Z,40
2022-12-07T15:13:50.185Z,40
2022-12-07T15:23:56.219Z,40
2022-12-07T15:34:02.335Z,40
2022-12-07T15:44:08.294Z,40
2022-12-07T15:54:14.487Z,40
2022-12-07T16:04:20.383Z,40
2022-12-07T16:14:26.535Z,40
2022-12-07T16:24:32.472Z,40
2022-12-07T16:34:38.548Z,40
2022-12-07T16:44:44.565Z,40
2022-12-07T16:54:50.637Z,40
2022-12-07T17:04:56.663Z,40
2022-12-07T17:15:03.061Z,40
2022-12-07T17:25:08.738Z,40
2022-12-07T17:35:14.830Z,40
2022-12-07T17:45:20.824Z,40
2022-12-07T17:55:26.915Z,40
2022-12-07T18:05:32.931Z,40
2022-12-07T18:15:39.019Z,40
2022-12-07T18:25:45.041Z,40.5
2022-12-07T18:35:51.126Z,40.5
2022-12-07T18:45:57.192Z,40.5
2022-12-07T18:56:03.179Z,40.5
2022-12-07T19:06:09.205Z,40.5
2022-12-07T19:16:15.380Z,40.5
2022-12-07T19:26:21.293Z,40.5
2022-12-07T19:36:27.499Z,40.5
2022-12-07T19:46:33.412Z,40.5
2022-12-07T19:56:39.483Z,40.5
2022-12-07T20:06:45.505Z,40.5
2022-12-07T20:16:51.640Z,40.5
2022-12-07T20:26:57.627Z,40.5
2022-12-07T20:37:03.669Z,40.5
2022-12-07T20:47:09.683Z,40.5
2022-12-07T20:57:15.779Z,40.5
2022-12-07T21:07:21.768Z,40.5
2022-12-07T21:17:27.845Z,40.5
2022-12-07T21:27:33.849Z,40.5
2022-12-07T21:37:39.936Z,40.5
2022-12-07T21:47:45.955Z,40.5
2022-12-07T21:57:52.180Z,40.5
2022-12-07T22:07:58.101Z,40.5
2022-12-07T22:18:04.127Z,40.5
2022-12-07T22:28:10.131Z,40.5
2022-12-07T22:38:16.215Z,40.5
2022-12-07T22:48:22.229Z,40.5
2022-12-07T22:58:28.334Z,40.5
2022-12-07T23:08:34.318Z,40.5
2022-12-07T23:18:40.392Z,40.5
2022-12-07T23:28:46.415Z,40.5
2022-12-07T23:38:52.497Z,40.5
2022-12-07T23:48:58.523Z,40.5
2022-12-07T23:59:04.567Z,40.5
